C E — WDI5089 — position and weather

sailwx.info

Track history (hours):
 
Tides and Currents Weather Stations Pressure Air Temp Water Temp Dewpoint Dewpoint Depression Visibility Wind Speed Wind Dir Waves Ship Positions

C E

Owner: Harley Marine Services, Inc, Seattle, WA. More information available from US FCC via Universal Licensing System and Coast Guard Vessel Documentation Center.

Last reported at 2017-Oct-20 19:31 UTC. Time now 2017-Oct-20 19:47 UTC.
Position N 47°34' W 122°21'.

Length 30 m; draft 4 m.

Type: Towing. MMSI: 367705050.

Date/timePositionNaut miles runAvg speedWind from/ knotsBaromVisibWave heightAir tempDewpointWater temp
2017-Oct-20 19:31N 47°34' W 122°21'0 0.3
2017-Oct-20 19:00N 47°35' W 122°21'2 3.8
2017-Oct-20 18:31N 47°36' W 122°23'3 5.5
2017-Oct-20 18:00N 47°35' W 122°26'3 6.3
2017-Oct-20 17:31N 47°32' W 122°28'4 7.6
2017-Oct-20 17:01N 47°29' W 122°31'4 7.4
2017-Oct-20 16:31N 47°25' W 122°32'3 6.7
2017-Oct-20 16:01N 47°22' W 122°32'3 5.3
2017-Oct-20 15:31N 47°19' W 122°30'3 6.3
2017-Oct-20 15:00N 47°17' W 122°27'2 1.7
2017-Oct-20 14:00N 47°16' W 122°25'0 0.0
2017-Oct-20 13:31N 47°16' W 122°25'0 0.0
2017-Oct-20 13:01N 47°16' W 122°25'0 0.0
2017-Oct-20 12:31N 47°16' W 122°25'0 0.0
2017-Oct-20 12:00N 47°16' W 122°25'0 0.0
2017-Oct-20 11:31N 47°16' W 122°25'0 0.0
2017-Oct-20 11:01N 47°16' W 122°25'0 0.0
2017-Oct-20 10:30N 47°16' W 122°25'0 0.0
2017-Oct-20 10:01N 47°16' W 122°25'0 0.0
2017-Oct-20 09:31N 47°16' W 122°25'0 0.0
2017-Oct-20 09:01N 47°16' W 122°25'0 0.0
2017-Oct-20 08:31N 47°16' W 122°25'0 0.0
2017-Oct-20 08:01N 47°16' W 122°25'0 0.0
2017-Oct-20 07:31N 47°16' W 122°25'0 0.0
2017-Oct-20 07:01N 47°16' W 122°25'0 0.0
2017-Oct-20 06:31N 47°16' W 122°25'0 0.0
2017-Oct-20 06:01N 47°16' W 122°25'0 0.0
2017-Oct-20 05:30N 47°16' W 122°25'0 0.0
2017-Oct-20 05:01N 47°16' W 122°25'0 0.0
2017-Oct-20 04:31N 47°16' W 122°25'0 0.0
2017-Oct-20 04:01N 47°16' W 122°25'0 0.0
2017-Oct-20 03:31N 47°16' W 122°25'0 0.0
2017-Oct-20 03:01N 47°16' W 122°25'0 0.0
2017-Oct-20 02:31N 47°16' W 122°25'0 0.0
2017-Oct-20 02:01N 47°16' W 122°25'0 0.0
2017-Oct-20 01:30N 47°16' W 122°25'0 0.0
2017-Oct-20 01:01N 47°16' W 122°25'0 0.0
2017-Oct-20 00:31N 47°16' W 122°25'0 0.0
2017-Oct-20 00:01N 47°16' W 122°25'0 0.0
2017-Oct-19 23:31N 47°16' W 122°25'0 0.0
2017-Oct-19 23:01N 47°16' W 122°25'0 0.0
2017-Oct-19 22:31N 47°16' W 122°25'0 0.0
2017-Oct-19 22:01N 47°16' W 122°25'0 0.0
2017-Oct-19 21:31N 47°16' W 122°25'0 0.0
2017-Oct-19 21:01N 47°16' W 122°25'0 0.0
2017-Oct-19 20:31N 47°16' W 122°25'0 0.0
2017-Oct-19 20:00N 47°16' W 122°25'0 0.0
2017-Oct-19 19:30N 47°16' W 122°25'0 0.0
2017-Oct-19 19:00N 47°16' W 122°25'0 0.0
2017-Oct-19 18:31N 47°16' W 122°25'0 0.0
2017-Oct-19 18:01N 47°16' W 122°25'0 0.0
2017-Oct-19 17:31N 47°16' W 122°25'0 0.0
2017-Oct-19 17:01N 47°16' W 122°25'0 0.0
2017-Oct-19 16:31N 47°16' W 122°25'0 0.0
2017-Oct-19 16:01N 47°16' W 122°25'0 0.0
2017-Oct-19 15:30N 47°16' W 122°25'0 0.0
2017-Oct-19 15:01N 47°16' W 122°25'0 0.0
2017-Oct-19 14:31N 47°16' W 122°25'0 0.0
2017-Oct-19 14:01N 47°16' W 122°25'0 0.0
2017-Oct-19 13:31N 47°16' W 122°25'0 0.0
2017-Oct-19 13:01N 47°16' W 122°25'0 0.0
2017-Oct-19 12:31N 47°16' W 122°25'0 0.0
2017-Oct-19 12:01N 47°16' W 122°25'0 0.0
2017-Oct-19 11:30N 47°16' W 122°25'0 0.0
2017-Oct-19 11:01N 47°16' W 122°25'0 0.0
2017-Oct-19 10:31N 47°16' W 122°25'0 0.0
2017-Oct-19 10:01N 47°16' W 122°25'0 0.0
2017-Oct-19 09:31N 47°16' W 122°25'0 0.0
2017-Oct-19 09:01N 47°16' W 122°25'0 0.0
2017-Oct-19 08:31N 47°16' W 122°25'0 0.0
2017-Oct-19 08:00N 47°16' W 122°25'0 0.0
2017-Oct-19 07:31N 47°16' W 122°25'0 0.0
2017-Oct-19 07:00N 47°16' W 122°25'0 0.0
2017-Oct-19 06:31N 47°16' W 122°25'0 0.0
2017-Oct-19 06:01N 47°16' W 122°25'0 0.0
2017-Oct-19 05:30N 47°16' W 122°25'0 0.0
2017-Oct-19 05:01N 47°16' W 122°25'0 0.0
2017-Oct-19 04:31N 47°16' W 122°25'0 0.3
2017-Oct-19 04:01N 47°16' W 122°25'1 1.2
2017-Oct-19 03:30N 47°16' W 122°24'0 0.9
2017-Oct-19 03:01N 47°16' W 122°24'0 0.1
2017-Oct-19 02:30N 47°16' W 122°24'0 0.0
2017-Oct-19 02:01N 47°16' W 122°24'0 0.0
2017-Oct-19 01:31N 47°16' W 122°24'0 0.0
2017-Oct-19 01:01N 47°16' W 122°24'0 0.0
2017-Oct-19 00:30N 47°16' W 122°24'0 0.0
2017-Oct-19 00:01N 47°16' W 122°24'0 0.0
2017-Oct-18 23:31N 47°16' W 122°24'0 0.0
2017-Oct-18 23:00N 47°16' W 122°24'1 1.6
2017-Oct-18 22:31N 47°16' W 122°25'0 0.0
2017-Oct-18 22:01N 47°16' W 122°25'1 1.9
2017-Oct-18 21:30N 47°17' W 122°24'0 0.8
2017-Oct-18 21:01N 47°17' W 122°23'0 0.0
2017-Oct-18 20:31N 47°17' W 122°23'0 0.0
2017-Oct-18 20:00N 47°17' W 122°23'0 0.0
2017-Oct-18 19:31N 47°17' W 122°23'0 0.0
2017-Oct-18 19:01N 47°17' W 122°23'0 0.0
2017-Oct-18 18:30N 47°17' W 122°23'0 0.0
2017-Oct-18 18:00N 47°17' W 122°23'0 0.0
2017-Oct-18 17:31N 47°17' W 122°23'0 0.0
2017-Oct-18 17:01N 47°17' W 122°23'0 0.0
2017-Oct-18 16:30N 47°17' W 122°23'0 0.0
2017-Oct-18 16:00N 47°17' W 122°23'0 0.0
2017-Oct-18 15:30N 47°17' W 122°23'0 0.9
2017-Oct-18 15:00N 47°17' W 122°24'1 0.8
2017-Oct-18 14:00N 47°16' W 122°24'1 1.9
2017-Oct-18 13:30N 47°15' W 122°23'0 0.0
2017-Oct-18 13:00N 47°15' W 122°23'0 0.0
2017-Oct-18 12:31N 47°15' W 122°23'0 0.0
2017-Oct-18 12:01N 47°15' W 122°23'0 0.0
2017-Oct-18 11:30N 47°15' W 122°23'0 0.0
2017-Oct-18 11:01N 47°15' W 122°23'0 0.0
2017-Oct-18 10:31N 47°15' W 122°23'0 0.0
2017-Oct-18 10:00N 47°15' W 122°23'0 0.0
2017-Oct-18 09:31N 47°15' W 122°23'0 0.0
2017-Oct-18 09:00N 47°15' W 122°23'0 0.0
2017-Oct-18 08:31N 47°15' W 122°23'0 0.0
2017-Oct-18 08:00N 47°15' W 122°23'0 0.0
2017-Oct-18 07:31N 47°15' W 122°23'0 0.0
2017-Oct-18 07:00N 47°15' W 122°23'0 0.0
2017-Oct-18 06:31N 47°15' W 122°23'0 0.0
2017-Oct-18 06:00N 47°15' W 122°23'0 0.0
2017-Oct-18 05:30N 47°15' W 122°23'0 0.0
2017-Oct-18 05:01N 47°15' W 122°23'0 0.0
2017-Oct-18 04:31N 47°15' W 122°23'0 0.0
2017-Oct-18 04:01N 47°15' W 122°23'0 0.0
2017-Oct-18 03:30N 47°15' W 122°23'0 0.0
2017-Oct-18 03:01N 47°15' W 122°23'0 0.0
2017-Oct-18 02:31N 47°15' W 122°23'0 0.0
2017-Oct-18 02:00N 47°15' W 122°23'0 0.0
2017-Oct-18 01:30N 47°15' W 122°23'0 0.0
2017-Oct-18 01:00N 47°15' W 122°23'0 0.0
2017-Oct-18 00:31N 47°15' W 122°23'0 0.0
2017-Oct-18 00:01N 47°15' W 122°23'0 0.0
2017-Oct-17 23:30N 47°15' W 122°23'0 0.0
2017-Oct-17 23:01N 47°15' W 122°23'0 0.0
2017-Oct-17 22:30N 47°15' W 122°23'0 0.0
2017-Oct-17 22:00N 47°15' W 122°23'0 0.0
2017-Oct-17 21:30N 47°15' W 122°23'0 0.0
2017-Oct-17 21:01N 47°15' W 122°23'0 0.0
2017-Oct-17 20:30N 47°15' W 122°23'0 0.1
2017-Oct-17 20:00N 47°15' W 122°23'1 1.6
2017-Oct-17 19:31N 47°16' W 122°23'1 2.3
2017-Oct-17 19:00N 47°17' W 122°25'0 0.0
2017-Oct-17 18:31N 47°17' W 122°25'0 0.0
2017-Oct-17 18:01N 47°17' W 122°25'0 0.0
2017-Oct-17 17:31N 47°17' W 122°25'0 0.0
2017-Oct-17 17:01N 47°17' W 122°25'0 0.0
2017-Oct-17 16:31N 47°17' W 122°25'0 0.0
2017-Oct-17 16:01N 47°17' W 122°25'0 0.0
2017-Oct-17 15:31N 47°17' W 122°25'0 0.0
2017-Oct-17 15:01N 47°17' W 122°25'0 0.0
2017-Oct-17 14:31N 47°17' W 122°25'0 0.0
2017-Oct-17 14:01N 47°17' W 122°25'0 0.0
2017-Oct-17 13:31N 47°17' W 122°25'0 0.0
2017-Oct-17 13:01N 47°17' W 122°25'0 0.0
2017-Oct-17 12:31N 47°17' W 122°25'0 0.0
2017-Oct-17 12:01N 47°17' W 122°25'0 0.0
2017-Oct-17 11:31N 47°17' W 122°25'0 0.0
2017-Oct-17 11:01N 47°17' W 122°25'0 0.0
2017-Oct-17 10:31N 47°17' W 122°25'0 0.0
2017-Oct-17 10:00N 47°17' W 122°25'0 0.0
2017-Oct-17 09:31N 47°17' W 122°25'0 0.0
2017-Oct-17 09:00N 47°17' W 122°25'0 0.0
2017-Oct-17 08:30N 47°17' W 122°25'0 0.0
2017-Oct-17 08:00N 47°17' W 122°25'0 0.0
2017-Oct-17 07:31N 47°17' W 122°25'0 0.0
2017-Oct-17 07:00N 47°17' W 122°25'0 0.0
2017-Oct-17 06:31N 47°17' W 122°25'0 0.0
2017-Oct-17 06:01N 47°17' W 122°25'0 0.0
2017-Oct-17 05:30N 47°17' W 122°25'0 0.0
2017-Oct-17 05:01N 47°17' W 122°25'0 0.0
2017-Oct-17 04:30N 47°17' W 122°25'0 0.0
2017-Oct-17 04:00N 47°17' W 122°25'0 0.0
2017-Oct-17 03:30N 47°17' W 122°25'0 0.0
2017-Oct-17 03:01N 47°17' W 122°25'0 0.0
2017-Oct-17 02:31N 47°17' W 122°25'0 0.0
2017-Oct-17 02:00N 47°17' W 122°25'0 0.3
2017-Oct-17 01:29N 47°17' W 122°24'1 3.0
2017-Oct-17 01:01N 47°16' W 122°23'0 0.0
2017-Oct-17 00:30N 47°16' W 122°23'0 0.0
2017-Oct-17 00:01N 47°16' W 122°23'0 0.0
2017-Oct-16 23:31N 47°16' W 122°23'0 0.0
2017-Oct-16 23:01N 47°16' W 122°23'0 0.0
2017-Oct-16 22:31N 47°16' W 122°23'0 0.0
2017-Oct-16 22:00N 47°16' W 122°23'0 0.0
2017-Oct-16 21:31N 47°16' W 122°23'0 0.0
2017-Oct-16 21:01N 47°16' W 122°23'0 0.0
2017-Oct-16 20:31N 47°16' W 122°23'0 0.0
2017-Oct-16 20:00N 47°16' W 122°23'0 0.0
2017-Oct-16 19:29N 47°16' W 122°23'0 0.0
2017-Oct-16 19:01N 47°16' W 122°23'0 0.0
2017-Oct-16 18:30N 47°16' W 122°23'0 0.0
2017-Oct-16 18:01N 47°16' W 122°23'0 0.0
2017-Oct-16 17:31N 47°16' W 122°23'0 0.0
2017-Oct-16 17:01N 47°16' W 122°23'0 0.0
2017-Oct-16 16:30N 47°16' W 122°23'0 0.0
2017-Oct-16 16:01N 47°16' W 122°23'0 0.0
2017-Oct-16 15:31N 47°16' W 122°23'0 0.0
2017-Oct-16 15:00N 47°16' W 122°23'0 0.0
2017-Oct-16 14:30N 47°16' W 122°23'0 0.0
2017-Oct-16 13:31N 47°16' W 122°23'0 0.0
2017-Oct-16 13:01N 47°16' W 122°23'0 0.0
2017-Oct-16 12:31N 47°16' W 122°23'0 0.0
2017-Oct-16 12:01N 47°16' W 122°23'0 0.0
2017-Oct-16 11:31N 47°16' W 122°23'0 0.0
2017-Oct-16 11:01N 47°16' W 122°23'0 0.0
2017-Oct-16 10:30N 47°16' W 122°23'0 0.0
2017-Oct-16 10:00N 47°16' W 122°23'0 0.0
2017-Oct-16 09:31N 47°16' W 122°23'0 0.0
2017-Oct-16 09:00N 47°16' W 122°23'0 0.0
2017-Oct-16 08:31N 47°16' W 122°23'0 0.0
2017-Oct-16 08:01N 47°16' W 122°23'0 0.0
2017-Oct-16 07:31N 47°16' W 122°23'0 0.0
2017-Oct-16 07:01N 47°16' W 122°23'0 0.0
2017-Oct-16 06:31N 47°16' W 122°23'0 0.0
2017-Oct-16 06:01N 47°16' W 122°23'0 0.0
2017-Oct-16 05:30N 47°16' W 122°23'0 0.0
2017-Oct-16 05:01N 47°16' W 122°23'0 0.0
2017-Oct-16 04:31N 47°16' W 122°23'0 0.0
2017-Oct-16 04:01N 47°16' W 122°23'0 0.0
2017-Oct-16 03:30N 47°16' W 122°23'0 0.0
2017-Oct-16 03:00N 47°16' W 122°23'0 0.0
2017-Oct-16 02:31N 47°16' W 122°23'0 0.0
2017-Oct-16 02:01N 47°16' W 122°23'0 0.0
2017-Oct-16 01:30N 47°16' W 122°23'0 0.0
2017-Oct-16 01:01N 47°16' W 122°23'0 0.0
2017-Oct-16 00:31N 47°16' W 122°23'0 0.0
2017-Oct-16 00:01N 47°16' W 122°23'1 1.5
2017-Oct-15 23:30N 47°16' W 122°24'0 0.0
2017-Oct-15 23:00N 47°16' W 122°24'0 0.0
2017-Oct-15 22:31N 47°16' W 122°24'0 0.0
2017-Oct-15 22:01N 47°16' W 122°24'0 0.0
2017-Oct-15 21:30N 47°16' W 122°24'0 0.3
2017-Oct-15 21:00N 47°16' W 122°24'1 1.7
2017-Oct-15 20:31N 47°16' W 122°23'0 0.0
2017-Oct-15 20:00N 47°16' W 122°23'0 0.0
2017-Oct-15 19:31N 47°16' W 122°23'0 0.0
2017-Oct-15 19:01N 47°16' W 122°23'0 0.0
2017-Oct-15 18:31N 47°16' W 122°23'0 0.0
2017-Oct-15 18:01N 47°16' W 122°23'0 0.0
2017-Oct-15 17:30N 47°16' W 122°23'0 0.0
2017-Oct-15 17:01N 47°16' W 122°23'0 0.0
2017-Oct-15 16:31N 47°16' W 122°23'0 0.0
2017-Oct-15 16:01N 47°16' W 122°23'0 0.0
2017-Oct-15 15:30N 47°16' W 122°23'0 0.0
2017-Oct-15 15:01N 47°16' W 122°23'0 0.0
2017-Oct-15 14:00N 47°16' W 122°23'0 0.0
2017-Oct-15 13:31N 47°16' W 122°23'0 0.0
2017-Oct-15 13:01N 47°16' W 122°23'0 0.0
2017-Oct-15 12:31N 47°16' W 122°23'0 0.0
2017-Oct-15 12:00N 47°16' W 122°23'0 0.0
2017-Oct-15 11:31N 47°16' W 122°23'0 0.0
2017-Oct-15 11:00N 47°16' W 122°23'0 0.0
2017-Oct-15 10:30N 47°16' W 122°23'0 0.0
2017-Oct-15 10:01N 47°16' W 122°23'0 0.0
2017-Oct-15 09:30N 47°16' W 122°23'0 0.0
2017-Oct-15 09:00N 47°16' W 122°23'0 0.0
2017-Oct-15 08:30N 47°16' W 122°23'0 0.0
2017-Oct-15 08:00N 47°16' W 122°23'0 0.0
2017-Oct-15 07:31N 47°16' W 122°23'0 0.0
2017-Oct-15 07:01N 47°16' W 122°23'0 0.0
2017-Oct-15 06:30N 47°16' W 122°23'0 0.0
2017-Oct-15 06:01N 47°16' W 122°23'0 0.0
2017-Oct-15 05:30N 47°16' W 122°23'0 0.0
2017-Oct-15 05:01N 47°16' W 122°23'0 0.0
2017-Oct-15 04:30N 47°16' W 122°23'0 0.0
2017-Oct-15 04:01N 47°16' W 122°23'0 0.0
2017-Oct-15 03:31N 47°16' W 122°23'0 0.0
2017-Oct-15 03:01N 47°16' W 122°23'0 0.0
2017-Oct-15 02:31N 47°16' W 122°23'0 0.0
2017-Oct-15 02:00N 47°16' W 122°23'0 0.0
2017-Oct-15 01:30N 47°16' W 122°23'0 0.0
2017-Oct-15 01:00N 47°16' W 122°23'0 0.0
2017-Oct-15 00:31N 47°16' W 122°23'0 0.0
2017-Oct-15 00:01N 47°16' W 122°23'0 0.0
2017-Oct-14 23:31N 47°16' W 122°23'0 0.1
2017-Oct-14 23:00N 47°16' W 122°23'0 0.1
2017-Oct-14 22:31N 47°16' W 122°23'0 0.0
2017-Oct-14 22:01N 47°16' W 122°23'0 0.0
2017-Oct-14 21:31N 47°16' W 122°23'0 0.0
2017-Oct-14 21:00N 47°16' W 122°23'0 0.0
2017-Oct-14 20:30N 47°16' W 122°23'0 0.0
2017-Oct-14 20:01N 47°16' W 122°23'0 0.0
2017-Oct-14 19:30N 47°16' W 122°23'0 0.0
2017-Oct-14 19:00N 47°16' W 122°23'0 0.0
2017-Oct-14 18:30N 47°16' W 122°23'0 0.0
2017-Oct-14 18:01N 47°16' W 122°23'0 0.0
2017-Oct-14 17:31N 47°16' W 122°23'0 0.0
2017-Oct-14 17:00N 47°16' W 122°23'0 0.0
2017-Oct-14 16:31N 47°16' W 122°23'0 0.0
2017-Oct-14 16:01N 47°16' W 122°23'0 0.0
2017-Oct-14 15:31N 47°16' W 122°23'0 0.0
2017-Oct-14 15:01N 47°16' W 122°23'0 0.0
2017-Oct-14 14:31N 47°16' W 122°23'0 0.0
2017-Oct-14 14:01N 47°16' W 122°23'0 0.0
2017-Oct-14 13:31N 47°16' W 122°23'0 0.0
2017-Oct-14 13:01N 47°16' W 122°23'0 0.0
2017-Oct-14 12:31N 47°16' W 122°23'0 0.0
2017-Oct-14 12:01N 47°16' W 122°23'0 0.0
2017-Oct-14 11:30N 47°16' W 122°23'0 0.0
2017-Oct-14 11:01N 47°16' W 122°23'0 0.0
2017-Oct-14 10:31N 47°16' W 122°23'0 0.0
2017-Oct-14 10:01N 47°16' W 122°23'0 0.0
2017-Oct-14 09:31N 47°16' W 122°23'0 0.0
2017-Oct-14 09:00N 47°16' W 122°23'0 0.0
2017-Oct-14 08:31N 47°16' W 122°23'0 0.0
2017-Oct-14 08:01N 47°16' W 122°23'0 0.0
2017-Oct-14 07:31N 47°16' W 122°23'0 0.0
2017-Oct-14 07:01N 47°16' W 122°23'2 3.6
2017-Oct-14 06:31N 47°17' W 122°24'1 1.4
2017-Oct-14 06:00N 47°17' W 122°24'1 2.5
2017-Oct-14 05:31N 47°17' W 122°25'1 1.1
2017-Oct-14 05:01N 47°17' W 122°26'0 1.0
2017-Oct-14 04:31N 47°17' W 122°25'2 4.4
2017-Oct-14 04:01N 47°16' W 122°23'1 2.4
2017-Oct-14 03:30N 47°16' W 122°24'0 0.8
2017-Oct-14 03:00N 47°17' W 122°24'0 0.9
2017-Oct-14 02:31N 47°17' W 122°23'0 0.3
2017-Oct-14 02:01N 47°17' W 122°23'0 0.0
2017-Oct-14 01:30N 47°17' W 122°23'0 0.0
2017-Oct-14 01:01N 47°17' W 122°23'0 0.0
2017-Oct-14 00:30N 47°17' W 122°23'0 0.0
2017-Oct-14 00:01N 47°17' W 122°23'0 0.0
2017-Oct-13 23:31N 47°17' W 122°23'1 1.8
2017-Oct-13 23:01N 47°16' W 122°22'1 2.0
2017-Oct-13 22:31N 47°17' W 122°23'1 1.7
2017-Oct-13 22:01N 47°17' W 122°24'1 1.9
2017-Oct-13 21:30N 47°16' W 122°25'0 0.0
2017-Oct-13 21:01N 47°16' W 122°25'0 0.0
2017-Oct-13 20:31N 47°16' W 122°25'0 0.0
2017-Oct-13 20:01N 47°16' W 122°25'0 0.0
2017-Oct-13 19:31N 47°16' W 122°25'0 0.0
2017-Oct-13 19:00N 47°16' W 122°25'0 0.0
2017-Oct-13 18:31N 47°16' W 122°25'0 0.0
2017-Oct-13 18:00N 47°16' W 122°25'0 0.0
2017-Oct-13 17:30N 47°16' W 122°25'0 0.0
2017-Oct-13 17:00N 47°16' W 122°25'0 0.0
2017-Oct-13 16:30N 47°16' W 122°25'0 0.1
2017-Oct-13 16:00N 47°16' W 122°25'0 0.1
2017-Oct-13 15:31N 47°16' W 122°25'0 0.0
2017-Oct-13 15:01N 47°16' W 122°25'0 0.0
2017-Oct-13 14:31N 47°16' W 122°25'0 0.0
2017-Oct-13 14:01N 47°16' W 122°25'0 0.0
2017-Oct-13 13:31N 47°16' W 122°25'0 0.0
2017-Oct-13 13:00N 47°16' W 122°25'0 0.0
2017-Oct-13 12:30N 47°16' W 122°25'0 0.0
2017-Oct-13 12:01N 47°16' W 122°25'0 0.0
2017-Oct-13 11:31N 47°16' W 122°25'0 0.0
2017-Oct-13 11:00N 47°16' W 122°25'0 0.0
2017-Oct-13 10:31N 47°16' W 122°25'0 0.0
2017-Oct-13 10:01N 47°16' W 122°25'0 0.0
2017-Oct-13 09:31N 47°16' W 122°25'0 0.0
2017-Oct-13 09:01N 47°16' W 122°25'0 0.0
2017-Oct-13 08:30N 47°16' W 122°25'0 0.0
2017-Oct-13 08:01N 47°16' W 122°25'0 0.0
2017-Oct-13 07:30N 47°16' W 122°25'0 0.0
2017-Oct-13 07:01N 47°16' W 122°25'0 0.0
2017-Oct-13 06:31N 47°16' W 122°25'0 0.0
2017-Oct-13 06:01N 47°16' W 122°25'0 0.0
2017-Oct-13 05:31N 47°16' W 122°25'0 0.0
2017-Oct-13 05:01N 47°16' W 122°25'0 0.0
2017-Oct-13 04:31N 47°16' W 122°25'0 0.0
2017-Oct-13 04:01N 47°16' W 122°25'0 0.0
2017-Oct-13 03:31N 47°16' W 122°25'0 0.0
2017-Oct-13 03:01N 47°16' W 122°25'0 0.0
2017-Oct-13 02:31N 47°16' W 122°25'0 0.0
2017-Oct-13 02:00N 47°16' W 122°25'0 0.0
2017-Oct-13 01:31N 47°16' W 122°25'0 0.0
2017-Oct-13 01:01N 47°16' W 122°25'1 1.7
2017-Oct-13 00:30N 47°17' W 122°26'0 0.6
2017-Oct-13 00:01N 47°17' W 122°26'1 1.9
2017-Oct-12 23:31N 47°16' W 122°25'0 0.0
2017-Oct-12 23:01N 47°16' W 122°25'0 0.0
2017-Oct-12 22:30N 47°16' W 122°25'0 0.0
2017-Oct-12 22:01N 47°16' W 122°25'0 0.0
2017-Oct-12 21:31N 47°16' W 122°25'0 0.0
2017-Oct-12 21:01N 47°16' W 122°25'0 0.0
2017-Oct-12 20:31N 47°16' W 122°25'0 0.0
2017-Oct-12 20:01N 47°16' W 122°25'0 0.0
2017-Oct-12 19:31N 47°16' W 122°25'1 2.0
2017-Oct-12 19:01N 47°17' W 122°25'1 2.5
2017-Oct-12 18:31N 47°17' W 122°23'0 0.0
2017-Oct-12 18:00N 47°17' W 122°23'0 0.0
2017-Oct-12 17:31N 47°17' W 122°23'0 0.0
2017-Oct-12 17:01N 47°17' W 122°23'0 0.0
2017-Oct-12 16:30N 47°17' W 122°23'0 0.0
2017-Oct-12 16:00N 47°17' W 122°23'0 0.0
2017-Oct-12 15:30N 47°17' W 122°23'0 0.0
2017-Oct-12 15:00N 47°17' W 122°23'0 0.0
2017-Oct-12 14:30N 47°17' W 122°23'0 0.0
2017-Oct-12 14:00N 47°17' W 122°23'0 0.3
2017-Oct-12 13:30N 47°17' W 122°24'1 2.1
2017-Oct-12 13:00N 47°17' W 122°25'2 3.5
2017-Oct-12 12:31N 47°16' W 122°23'1 1.3
2017-Oct-12 12:01N 47°15' W 122°23'0 0.0
2017-Oct-12 11:30N 47°15' W 122°23'0 0.1
2017-Oct-12 11:00N 47°15' W 122°23'0 0.0
2017-Oct-12 10:31N 47°15' W 122°23'0 0.0
2017-Oct-12 10:01N 47°15' W 122°23'0 0.0
2017-Oct-12 09:31N 47°15' W 122°23'0 0.0
2017-Oct-12 09:00N 47°15' W 122°23'0 0.0
2017-Oct-12 08:30N 47°15' W 122°23'0 0.0
2017-Oct-12 08:00N 47°15' W 122°23'0 0.0
2017-Oct-12 07:31N 47°15' W 122°23'0 0.0
2017-Oct-12 07:00N 47°15' W 122°23'0 0.0
2017-Oct-12 06:30N 47°15' W 122°23'0 0.0
2017-Oct-12 06:00N 47°15' W 122°23'0 0.0
2017-Oct-12 05:31N 47°15' W 122°23'0 0.0
2017-Oct-12 05:01N 47°15' W 122°23'0 0.0
2017-Oct-12 04:31N 47°15' W 122°23'0 0.0
2017-Oct-12 04:01N 47°15' W 122°23'0 0.0
2017-Oct-12 03:31N 47°15' W 122°23'0 0.0
2017-Oct-12 03:01N 47°15' W 122°23'0 0.0
2017-Oct-12 02:31N 47°15' W 122°23'0 0.0
2017-Oct-12 02:00N 47°15' W 122°23'0 0.0
2017-Oct-12 01:31N 47°15' W 122°23'0 0.0
2017-Oct-12 01:00N 47°15' W 122°23'2 3.4
2017-Oct-12 00:31N 47°16' W 122°24'0 1.0
2017-Oct-12 00:01N 47°17' W 122°24'1 1.7
2017-Oct-11 23:31N 47°17' W 122°23'0 0.1
2017-Oct-11 23:01N 47°17' W 122°23'0 0.0
2017-Oct-11 22:30N 47°17' W 122°23'0 0.0
2017-Oct-11 22:00N 47°17' W 122°23'0 0.0
2017-Oct-11 21:31N 47°17' W 122°23'0 0.0
2017-Oct-11 21:00N 47°17' W 122°23'0 0.0
2017-Oct-11 20:31N 47°17' W 122°23'0 0.0
2017-Oct-11 20:00N 47°17' W 122°23'0 0.0
2017-Oct-11 19:31N 47°17' W 122°23'0 0.0
2017-Oct-11 19:00N 47°17' W 122°23'0 0.0
2017-Oct-11 18:30N 47°17' W 122°23'0 0.0
2017-Oct-11 18:00N 47°17' W 122°23'0 0.0
2017-Oct-11 17:30N 47°17' W 122°23'0 0.0
2017-Oct-11 17:01N 47°17' W 122°23'1 0.1
2017-Oct-11 00:01N 47°16' W 122°25'0 0.0
2017-Oct-10 23:30N 47°16' W 122°25'0 0.0
2017-Oct-10 23:01N 47°16' W 122°25'0 0.0
2017-Oct-10 22:31N 47°16' W 122°25'0 0.0
2017-Oct-10 22:01N 47°16' W 122°25'0 0.0
2017-Oct-10 21:30N 47°16' W 122°25'0 0.0
2017-Oct-10 20:59N 47°16' W 122°25'0 0.0
2017-Oct-10 20:30N 47°16' W 122°25'0 0.0
2017-Oct-10 20:01N 47°16' W 122°25'  
Track history (hours):
 
Tides and Currents Weather Stations Pressure Air Temp Water Temp Dewpoint Dewpoint Depression Visibility Wind Speed Wind Dir Waves Ship Positions

C E

Owner: Harley Marine Services, Inc, Seattle, WA. More information available from US FCC via Universal Licensing System and Coast Guard Vessel Documentation Center.

Last reported at 2017-Oct-20 19:31 UTC. Time now 2017-Oct-20 19:47 UTC.
Position N 47°34' W 122°21'.

Length 30 m; draft 4 m.

Type: Towing. MMSI: 367705050.

Date/timePositionNaut miles runAvg speedWind from/ knotsBaromVisibWave heightAir tempDewpointWater temp
2017-Oct-20 19:31N 47°34' W 122°21'0 0.3
2017-Oct-20 19:00N 47°35' W 122°21'2 3.8
2017-Oct-20 18:31N 47°36' W 122°23'3 5.5
2017-Oct-20 18:00N 47°35' W 122°26'3 6.3
2017-Oct-20 17:31N 47°32' W 122°28'4 7.6
2017-Oct-20 17:01N 47°29' W 122°31'4 7.4
2017-Oct-20 16:31N 47°25' W 122°32'3 6.7
2017-Oct-20 16:01N 47°22' W 122°32'3 5.3
2017-Oct-20 15:31N 47°19' W 122°30'3 6.3
2017-Oct-20 15:00N 47°17' W 122°27'2 1.7
2017-Oct-20 14:00N 47°16' W 122°25'0 0.0
2017-Oct-20 13:31N 47°16' W 122°25'0 0.0
2017-Oct-20 13:01N 47°16' W 122°25'0 0.0
2017-Oct-20 12:31N 47°16' W 122°25'0 0.0
2017-Oct-20 12:00N 47°16' W 122°25'0 0.0
2017-Oct-20 11:31N 47°16' W 122°25'0 0.0
2017-Oct-20 11:01N 47°16' W 122°25'0 0.0
2017-Oct-20 10:30N 47°16' W 122°25'0 0.0
2017-Oct-20 10:01N 47°16' W 122°25'0 0.0
2017-Oct-20 09:31N 47°16' W 122°25'0 0.0
2017-Oct-20 09:01N 47°16' W 122°25'0 0.0
2017-Oct-20 08:31N 47°16' W 122°25'0 0.0
2017-Oct-20 08:01N 47°16' W 122°25'0 0.0
2017-Oct-20 07:31N 47°16' W 122°25'0 0.0
2017-Oct-20 07:01N 47°16' W 122°25'0 0.0
2017-Oct-20 06:31N 47°16' W 122°25'0 0.0
2017-Oct-20 06:01N 47°16' W 122°25'0 0.0
2017-Oct-20 05:30N 47°16' W 122°25'0 0.0
2017-Oct-20 05:01N 47°16' W 122°25'0 0.0
2017-Oct-20 04:31N 47°16' W 122°25'0 0.0
2017-Oct-20 04:01N 47°16' W 122°25'0 0.0
2017-Oct-20 03:31N 47°16' W 122°25'0 0.0
2017-Oct-20 03:01N 47°16' W 122°25'0 0.0
2017-Oct-20 02:31N 47°16' W 122°25'0 0.0
2017-Oct-20 02:01N 47°16' W 122°25'0 0.0
2017-Oct-20 01:30N 47°16' W 122°25'0 0.0
2017-Oct-20 01:01N 47°16' W 122°25'0 0.0
2017-Oct-20 00:31N 47°16' W 122°25'0 0.0
2017-Oct-20 00:01N 47°16' W 122°25'0 0.0
2017-Oct-19 23:31N 47°16' W 122°25'0 0.0
2017-Oct-19 23:01N 47°16' W 122°25'0 0.0
2017-Oct-19 22:31N 47°16' W 122°25'0 0.0
2017-Oct-19 22:01N 47°16' W 122°25'0 0.0
2017-Oct-19 21:31N 47°16' W 122°25'0 0.0
2017-Oct-19 21:01N 47°16' W 122°25'0 0.0
2017-Oct-19 20:31N 47°16' W 122°25'0 0.0
2017-Oct-19 20:00N 47°16' W 122°25'0 0.0
2017-Oct-19 19:30N 47°16' W 122°25'0 0.0
2017-Oct-19 19:00N 47°16' W 122°25'0 0.0
2017-Oct-19 18:31N 47°16' W 122°25'0 0.0
2017-Oct-19 18:01N 47°16' W 122°25'0 0.0
2017-Oct-19 17:31N 47°16' W 122°25'0 0.0
2017-Oct-19 17:01N 47°16' W 122°25'0 0.0
2017-Oct-19 16:31N 47°16' W 122°25'0 0.0
2017-Oct-19 16:01N 47°16' W 122°25'0 0.0
2017-Oct-19 15:30N 47°16' W 122°25'0 0.0
2017-Oct-19 15:01N 47°16' W 122°25'0 0.0
2017-Oct-19 14:31N 47°16' W 122°25'0 0.0
2017-Oct-19 14:01N 47°16' W 122°25'0 0.0
2017-Oct-19 13:31N 47°16' W 122°25'0 0.0
2017-Oct-19 13:01N 47°16' W 122°25'0 0.0
2017-Oct-19 12:31N 47°16' W 122°25'0 0.0
2017-Oct-19 12:01N 47°16' W 122°25'0 0.0
2017-Oct-19 11:30N 47°16' W 122°25'0 0.0
2017-Oct-19 11:01N 47°16' W 122°25'0 0.0
2017-Oct-19 10:31N 47°16' W 122°25'0 0.0
2017-Oct-19 10:01N 47°16' W 122°25'0 0.0
2017-Oct-19 09:31N 47°16' W 122°25'0 0.0
2017-Oct-19 09:01N 47°16' W 122°25'0 0.0
2017-Oct-19 08:31N 47°16' W 122°25'0 0.0
2017-Oct-19 08:00N 47°16' W 122°25'0 0.0
2017-Oct-19 07:31N 47°16' W 122°25'0 0.0
2017-Oct-19 07:00N 47°16' W 122°25'0 0.0
2017-Oct-19 06:31N 47°16' W 122°25'0 0.0
2017-Oct-19 06:01N 47°16' W 122°25'0 0.0
2017-Oct-19 05:30N 47°16' W 122°25'0 0.0
2017-Oct-19 05:01N 47°16' W 122°25'0 0.0
2017-Oct-19 04:31N 47°16' W 122°25'0 0.3
2017-Oct-19 04:01N 47°16' W 122°25'1 1.2
2017-Oct-19 03:30N 47°16' W 122°24'0 0.9
2017-Oct-19 03:01N 47°16' W 122°24'0 0.1
2017-Oct-19 02:30N 47°16' W 122°24'0 0.0
2017-Oct-19 02:01N 47°16' W 122°24'0 0.0
2017-Oct-19 01:31N 47°16' W 122°24'0 0.0
2017-Oct-19 01:01N 47°16' W 122°24'0 0.0
2017-Oct-19 00:30N 47°16' W 122°24'0 0.0
2017-Oct-19 00:01N 47°16' W 122°24'0 0.0
2017-Oct-18 23:31N 47°16' W 122°24'0 0.0
2017-Oct-18 23:00N 47°16' W 122°24'1 1.6
2017-Oct-18 22:31N 47°16' W 122°25'0 0.0
2017-Oct-18 22:01N 47°16' W 122°25'1 1.9
2017-Oct-18 21:30N 47°17' W 122°24'0 0.8
2017-Oct-18 21:01N 47°17' W 122°23'0 0.0
2017-Oct-18 20:31N 47°17' W 122°23'0 0.0
2017-Oct-18 20:00N 47°17' W 122°23'0 0.0
2017-Oct-18 19:31N 47°17' W 122°23'0 0.0
2017-Oct-18 19:01N 47°17' W 122°23'0 0.0
2017-Oct-18 18:30N 47°17' W 122°23'0 0.0
2017-Oct-18 18:00N 47°17' W 122°23'0 0.0
2017-Oct-18 17:31N 47°17' W 122°23'0 0.0
2017-Oct-18 17:01N 47°17' W 122°23'0 0.0
2017-Oct-18 16:30N 47°17' W 122°23'0 0.0
2017-Oct-18 16:00N 47°17' W 122°23'0 0.0
2017-Oct-18 15:30N 47°17' W 122°23'0 0.9
2017-Oct-18 15:00N 47°17' W 122°24'1 0.8
2017-Oct-18 14:00N 47°16' W 122°24'1 1.9
2017-Oct-18 13:30N 47°15' W 122°23'0 0.0
2017-Oct-18 13:00N 47°15' W 122°23'0 0.0
2017-Oct-18 12:31N 47°15' W 122°23'0 0.0
2017-Oct-18 12:01N 47°15' W 122°23'0 0.0
2017-Oct-18 11:30N 47°15' W 122°23'0 0.0
2017-Oct-18 11:01N 47°15' W 122°23'0 0.0
2017-Oct-18 10:31N 47°15' W 122°23'0 0.0
2017-Oct-18 10:00N 47°15' W 122°23'0 0.0
2017-Oct-18 09:31N 47°15' W 122°23'0 0.0
2017-Oct-18 09:00N 47°15' W 122°23'0 0.0
2017-Oct-18 08:31N 47°15' W 122°23'0 0.0
2017-Oct-18 08:00N 47°15' W 122°23'0 0.0
2017-Oct-18 07:31N 47°15' W 122°23'0 0.0
2017-Oct-18 07:00N 47°15' W 122°23'0 0.0
2017-Oct-18 06:31N 47°15' W 122°23'0 0.0
2017-Oct-18 06:00N 47°15' W 122°23'0 0.0
2017-Oct-18 05:30N 47°15' W 122°23'0 0.0
2017-Oct-18 05:01N 47°15' W 122°23'0 0.0
2017-Oct-18 04:31N 47°15' W 122°23'0 0.0
2017-Oct-18 04:01N 47°15' W 122°23'0 0.0
2017-Oct-18 03:30N 47°15' W 122°23'0 0.0
2017-Oct-18 03:01N 47°15' W 122°23'0 0.0
2017-Oct-18 02:31N 47°15' W 122°23'0 0.0
2017-Oct-18 02:00N 47°15' W 122°23'0 0.0
2017-Oct-18 01:30N 47°15' W 122°23'0 0.0
2017-Oct-18 01:00N 47°15' W 122°23'0 0.0
2017-Oct-18 00:31N 47°15' W 122°23'0 0.0
2017-Oct-18 00:01N 47°15' W 122°23'0 0.0
2017-Oct-17 23:30N 47°15' W 122°23'0 0.0
2017-Oct-17 23:01N 47°15' W 122°23'0 0.0
2017-Oct-17 22:30N 47°15' W 122°23'0 0.0
2017-Oct-17 22:00N 47°15' W 122°23'0 0.0
2017-Oct-17 21:30N 47°15' W 122°23'0 0.0
2017-Oct-17 21:01N 47°15' W 122°23'0 0.0
2017-Oct-17 20:30N 47°15' W 122°23'0 0.1
2017-Oct-17 20:00N 47°15' W 122°23'1 1.6
2017-Oct-17 19:31N 47°16' W 122°23'1 2.3
2017-Oct-17 19:00N 47°17' W 122°25'0 0.0
2017-Oct-17 18:31N 47°17' W 122°25'0 0.0
2017-Oct-17 18:01N 47°17' W 122°25'0 0.0
2017-Oct-17 17:31N 47°17' W 122°25'0 0.0
2017-Oct-17 17:01N 47°17' W 122°25'0 0.0
2017-Oct-17 16:31N 47°17' W 122°25'0 0.0
2017-Oct-17 16:01N 47°17' W 122°25'0 0.0
2017-Oct-17 15:31N 47°17' W 122°25'0 0.0
2017-Oct-17 15:01N 47°17' W 122°25'0 0.0
2017-Oct-17 14:31N 47°17' W 122°25'0 0.0
2017-Oct-17 14:01N 47°17' W 122°25'0 0.0
2017-Oct-17 13:31N 47°17' W 122°25'0 0.0
2017-Oct-17 13:01N 47°17' W 122°25'0 0.0
2017-Oct-17 12:31N 47°17' W 122°25'0 0.0
2017-Oct-17 12:01N 47°17' W 122°25'0 0.0
2017-Oct-17 11:31N 47°17' W 122°25'0 0.0
2017-Oct-17 11:01N 47°17' W 122°25'0 0.0
2017-Oct-17 10:31N 47°17' W 122°25'0 0.0
2017-Oct-17 10:00N 47°17' W 122°25'0 0.0
2017-Oct-17 09:31N 47°17' W 122°25'0 0.0
2017-Oct-17 09:00N 47°17' W 122°25'0 0.0
2017-Oct-17 08:30N 47°17' W 122°25'0 0.0
2017-Oct-17 08:00N 47°17' W 122°25'0 0.0
2017-Oct-17 07:31N 47°17' W 122°25'0 0.0
2017-Oct-17 07:00N 47°17' W 122°25'0 0.0
2017-Oct-17 06:31N 47°17' W 122°25'0 0.0
2017-Oct-17 06:01N 47°17' W 122°25'0 0.0
2017-Oct-17 05:30N 47°17' W 122°25'0 0.0
2017-Oct-17 05:01N 47°17' W 122°25'0 0.0
2017-Oct-17 04:30N 47°17' W 122°25'0 0.0
2017-Oct-17 04:00N 47°17' W 122°25'0 0.0
2017-Oct-17 03:30N 47°17' W 122°25'0 0.0
2017-Oct-17 03:01N 47°17' W 122°25'0 0.0
2017-Oct-17 02:31N 47°17' W 122°25'0 0.0
2017-Oct-17 02:00N 47°17' W 122°25'0 0.3
2017-Oct-17 01:29N 47°17' W 122°24'1 3.0
2017-Oct-17 01:01N 47°16' W 122°23'0 0.0
2017-Oct-17 00:30N 47°16' W 122°23'0 0.0
2017-Oct-17 00:01N 47°16' W 122°23'0 0.0
2017-Oct-16 23:31N 47°16' W 122°23'0 0.0
2017-Oct-16 23:01N 47°16' W 122°23'0 0.0
2017-Oct-16 22:31N 47°16' W 122°23'0 0.0
2017-Oct-16 22:00N 47°16' W 122°23'0 0.0
2017-Oct-16 21:31N 47°16' W 122°23'0 0.0
2017-Oct-16 21:01N 47°16' W 122°23'0 0.0
2017-Oct-16 20:31N 47°16' W 122°23'0 0.0
2017-Oct-16 20:00N 47°16' W 122°23'0 0.0
2017-Oct-16 19:29N 47°16' W 122°23'0 0.0
2017-Oct-16 19:01N 47°16' W 122°23'0 0.0
2017-Oct-16 18:30N 47°16' W 122°23'0 0.0
2017-Oct-16 18:01N 47°16' W 122°23'0 0.0
2017-Oct-16 17:31N 47°16' W 122°23'0 0.0
2017-Oct-16 17:01N 47°16' W 122°23'0 0.0
2017-Oct-16 16:30N 47°16' W 122°23'0 0.0
2017-Oct-16 16:01N 47°16' W 122°23'0 0.0
2017-Oct-16 15:31N 47°16' W 122°23'0 0.0
2017-Oct-16 15:00N 47°16' W 122°23'0 0.0
2017-Oct-16 14:30N 47°16' W 122°23'0 0.0
2017-Oct-16 13:31N 47°16' W 122°23'0 0.0
2017-Oct-16 13:01N 47°16' W 122°23'0 0.0
2017-Oct-16 12:31N 47°16' W 122°23'0 0.0
2017-Oct-16 12:01N 47°16' W 122°23'0 0.0
2017-Oct-16 11:31N 47°16' W 122°23'0 0.0
2017-Oct-16 11:01N 47°16' W 122°23'0 0.0
2017-Oct-16 10:30N 47°16' W 122°23'0 0.0
2017-Oct-16 10:00N 47°16' W 122°23'0 0.0
2017-Oct-16 09:31N 47°16' W 122°23'0 0.0
2017-Oct-16 09:00N 47°16' W 122°23'0 0.0
2017-Oct-16 08:31N 47°16' W 122°23'0 0.0
2017-Oct-16 08:01N 47°16' W 122°23'0 0.0
2017-Oct-16 07:31N 47°16' W 122°23'0 0.0
2017-Oct-16 07:01N 47°16' W 122°23'0 0.0
2017-Oct-16 06:31N 47°16' W 122°23'0 0.0
2017-Oct-16 06:01N 47°16' W 122°23'0 0.0
2017-Oct-16 05:30N 47°16' W 122°23'0 0.0
2017-Oct-16 05:01N 47°16' W 122°23'0 0.0
2017-Oct-16 04:31N 47°16' W 122°23'0 0.0
2017-Oct-16 04:01N 47°16' W 122°23'0 0.0
2017-Oct-16 03:30N 47°16' W 122°23'0 0.0
2017-Oct-16 03:00N 47°16' W 122°23'0 0.0
2017-Oct-16 02:31N 47°16' W 122°23'0 0.0
2017-Oct-16 02:01N 47°16' W 122°23'0 0.0
2017-Oct-16 01:30N 47°16' W 122°23'0 0.0
2017-Oct-16 01:01N 47°16' W 122°23'0 0.0
2017-Oct-16 00:31N 47°16' W 122°23'0 0.0
2017-Oct-16 00:01N 47°16' W 122°23'1 1.5
2017-Oct-15 23:30N 47°16' W 122°24'0 0.0
2017-Oct-15 23:00N 47°16' W 122°24'0 0.0
2017-Oct-15 22:31N 47°16' W 122°24'0 0.0
2017-Oct-15 22:01N 47°16' W 122°24'0 0.0
2017-Oct-15 21:30N 47°16' W 122°24'0 0.3
2017-Oct-15 21:00N 47°16' W 122°24'1 1.7
2017-Oct-15 20:31N 47°16' W 122°23'0 0.0
2017-Oct-15 20:00N 47°16' W 122°23'0 0.0
2017-Oct-15 19:31N 47°16' W 122°23'0 0.0
2017-Oct-15 19:01N 47°16' W 122°23'0 0.0
2017-Oct-15 18:31N 47°16' W 122°23'0 0.0
2017-Oct-15 18:01N 47°16' W 122°23'0 0.0
2017-Oct-15 17:30N 47°16' W 122°23'0 0.0
2017-Oct-15 17:01N 47°16' W 122°23'0 0.0
2017-Oct-15 16:31N 47°16' W 122°23'0 0.0
2017-Oct-15 16:01N 47°16' W 122°23'0 0.0
2017-Oct-15 15:30N 47°16' W 122°23'0 0.0
2017-Oct-15 15:01N 47°16' W 122°23'0 0.0
2017-Oct-15 14:00N 47°16' W 122°23'0 0.0
2017-Oct-15 13:31N 47°16' W 122°23'0 0.0
2017-Oct-15 13:01N 47°16' W 122°23'0 0.0
2017-Oct-15 12:31N 47°16' W 122°23'0 0.0
2017-Oct-15 12:00N 47°16' W 122°23'0 0.0
2017-Oct-15 11:31N 47°16' W 122°23'0 0.0
2017-Oct-15 11:00N 47°16' W 122°23'0 0.0
2017-Oct-15 10:30N 47°16' W 122°23'0 0.0
2017-Oct-15 10:01N 47°16' W 122°23'0 0.0
2017-Oct-15 09:30N 47°16' W 122°23'0 0.0
2017-Oct-15 09:00N 47°16' W 122°23'0 0.0
2017-Oct-15 08:30N 47°16' W 122°23'0 0.0
2017-Oct-15 08:00N 47°16' W 122°23'0 0.0
2017-Oct-15 07:31N 47°16' W 122°23'0 0.0
2017-Oct-15 07:01N 47°16' W 122°23'0 0.0
2017-Oct-15 06:30N 47°16' W 122°23'0 0.0
2017-Oct-15 06:01N 47°16' W 122°23'0 0.0
2017-Oct-15 05:30N 47°16' W 122°23'0 0.0
2017-Oct-15 05:01N 47°16' W 122°23'0 0.0
2017-Oct-15 04:30N 47°16' W 122°23'0 0.0
2017-Oct-15 04:01N 47°16' W 122°23'0 0.0
2017-Oct-15 03:31N 47°16' W 122°23'0 0.0
2017-Oct-15 03:01N 47°16' W 122°23'0 0.0
2017-Oct-15 02:31N 47°16' W 122°23'0 0.0
2017-Oct-15 02:00N 47°16' W 122°23'0 0.0
2017-Oct-15 01:30N 47°16' W 122°23'0 0.0
2017-Oct-15 01:00N 47°16' W 122°23'0 0.0
2017-Oct-15 00:31N 47°16' W 122°23'0 0.0
2017-Oct-15 00:01N 47°16' W 122°23'0 0.0
2017-Oct-14 23:31N 47°16' W 122°23'0 0.1
2017-Oct-14 23:00N 47°16' W 122°23'0 0.1
2017-Oct-14 22:31N 47°16' W 122°23'0 0.0
2017-Oct-14 22:01N 47°16' W 122°23'0 0.0
2017-Oct-14 21:31N 47°16' W 122°23'0 0.0
2017-Oct-14 21:00N 47°16' W 122°23'0 0.0
2017-Oct-14 20:30N 47°16' W 122°23'0 0.0
2017-Oct-14 20:01N 47°16' W 122°23'0 0.0
2017-Oct-14 19:30N 47°16' W 122°23'0 0.0
2017-Oct-14 19:00N 47°16' W 122°23'0 0.0
2017-Oct-14 18:30N 47°16' W 122°23'0 0.0
2017-Oct-14 18:01N 47°16' W 122°23'0 0.0
2017-Oct-14 17:31N 47°16' W 122°23'0 0.0
2017-Oct-14 17:00N 47°16' W 122°23'0 0.0
2017-Oct-14 16:31N 47°16' W 122°23'0 0.0
2017-Oct-14 16:01N 47°16' W 122°23'0 0.0
2017-Oct-14 15:31N 47°16' W 122°23'0 0.0
2017-Oct-14 15:01N 47°16' W 122°23'0 0.0
2017-Oct-14 14:31N 47°16' W 122°23'0 0.0
2017-Oct-14 14:01N 47°16' W 122°23'0 0.0
2017-Oct-14 13:31N 47°16' W 122°23'0 0.0
2017-Oct-14 13:01N 47°16' W 122°23'0 0.0
2017-Oct-14 12:31N 47°16' W 122°23'0 0.0
2017-Oct-14 12:01N 47°16' W 122°23'0 0.0
2017-Oct-14 11:30N 47°16' W 122°23'0 0.0
2017-Oct-14 11:01N 47°16' W 122°23'0 0.0
2017-Oct-14 10:31N 47°16' W 122°23'0 0.0
2017-Oct-14 10:01N 47°16' W 122°23'0 0.0
2017-Oct-14 09:31N 47°16' W 122°23'0 0.0
2017-Oct-14 09:00N 47°16' W 122°23'0 0.0
2017-Oct-14 08:31N 47°16' W 122°23'0 0.0
2017-Oct-14 08:01N 47°16' W 122°23'0 0.0
2017-Oct-14 07:31N 47°16' W 122°23'0 0.0
2017-Oct-14 07:01N 47°16' W 122°23'2 3.6
2017-Oct-14 06:31N 47°17' W 122°24'1 1.4
2017-Oct-14 06:00N 47°17' W 122°24'1 2.5
2017-Oct-14 05:31N 47°17' W 122°25'1 1.1
2017-Oct-14 05:01N 47°17' W 122°26'0 1.0
2017-Oct-14 04:31N 47°17' W 122°25'2 4.4
2017-Oct-14 04:01N 47°16' W 122°23'1 2.4
2017-Oct-14 03:30N 47°16' W 122°24'0 0.8
2017-Oct-14 03:00N 47°17' W 122°24'0 0.9
2017-Oct-14 02:31N 47°17' W 122°23'0 0.3
2017-Oct-14 02:01N 47°17' W 122°23'0 0.0
2017-Oct-14 01:30N 47°17' W 122°23'0 0.0
2017-Oct-14 01:01N 47°17' W 122°23'0 0.0
2017-Oct-14 00:30N 47°17' W 122°23'0 0.0
2017-Oct-14 00:01N 47°17' W 122°23'0 0.0
2017-Oct-13 23:31N 47°17' W 122°23'1 1.8
2017-Oct-13 23:01N 47°16' W 122°22'1 2.0
2017-Oct-13 22:31N 47°17' W 122°23'1 1.7
2017-Oct-13 22:01N 47°17' W 122°24'1 1.9
2017-Oct-13 21:30N 47°16' W 122°25'0 0.0
2017-Oct-13 21:01N 47°16' W 122°25'0 0.0
2017-Oct-13 20:31N 47°16' W 122°25'0 0.0
2017-Oct-13 20:01N 47°16' W 122°25'0 0.0
2017-Oct-13 19:31N 47°16' W 122°25'0 0.0
2017-Oct-13 19:00N 47°16' W 122°25'0 0.0
2017-Oct-13 18:31N 47°16' W 122°25'0 0.0
2017-Oct-13 18:00N 47°16' W 122°25'0 0.0
2017-Oct-13 17:30N 47°16' W 122°25'0 0.0
2017-Oct-13 17:00N 47°16' W 122°25'0 0.0
2017-Oct-13 16:30N 47°16' W 122°25'0 0.1
2017-Oct-13 16:00N 47°16' W 122°25'0 0.1
2017-Oct-13 15:31N 47°16' W 122°25'0 0.0
2017-Oct-13 15:01N 47°16' W 122°25'0 0.0
2017-Oct-13 14:31N 47°16' W 122°25'0 0.0
2017-Oct-13 14:01N 47°16' W 122°25'0 0.0
2017-Oct-13 13:31N 47°16' W 122°25'0 0.0
2017-Oct-13 13:00N 47°16' W 122°25'0 0.0
2017-Oct-13 12:30N 47°16' W 122°25'0 0.0
2017-Oct-13 12:01N 47°16' W 122°25'0 0.0
2017-Oct-13 11:31N 47°16' W 122°25'0 0.0
2017-Oct-13 11:00N 47°16' W 122°25'0 0.0
2017-Oct-13 10:31N 47°16' W 122°25'0 0.0
2017-Oct-13 10:01N 47°16' W 122°25'0 0.0
2017-Oct-13 09:31N 47°16' W 122°25'0 0.0
2017-Oct-13 09:01N 47°16' W 122°25'0 0.0
2017-Oct-13 08:30N 47°16' W 122°25'0 0.0
2017-Oct-13 08:01N 47°16' W 122°25'0 0.0
2017-Oct-13 07:30N 47°16' W 122°25'0 0.0
2017-Oct-13 07:01N 47°16' W 122°25'0 0.0
2017-Oct-13 06:31N 47°16' W 122°25'0 0.0
2017-Oct-13 06:01N 47°16' W 122°25'0 0.0
2017-Oct-13 05:31N 47°16' W 122°25'0 0.0
2017-Oct-13 05:01N 47°16' W 122°25'0 0.0
2017-Oct-13 04:31N 47°16' W 122°25'0 0.0
2017-Oct-13 04:01N 47°16' W 122°25'0 0.0
2017-Oct-13 03:31N 47°16' W 122°25'0 0.0
2017-Oct-13 03:01N 47°16' W 122°25'0 0.0
2017-Oct-13 02:31N 47°16' W 122°25'0 0.0
2017-Oct-13 02:00N 47°16' W 122°25'0 0.0
2017-Oct-13 01:31N 47°16' W 122°25'0 0.0
2017-Oct-13 01:01N 47°16' W 122°25'1 1.7
2017-Oct-13 00:30N 47°17' W 122°26'0 0.6
2017-Oct-13 00:01N 47°17' W 122°26'1 1.9
2017-Oct-12 23:31N 47°16' W 122°25'0 0.0
2017-Oct-12 23:01N 47°16' W 122°25'0 0.0
2017-Oct-12 22:30N 47°16' W 122°25'0 0.0
2017-Oct-12 22:01N 47°16' W 122°25'0 0.0
2017-Oct-12 21:31N 47°16' W 122°25'0 0.0
2017-Oct-12 21:01N 47°16' W 122°25'0 0.0
2017-Oct-12 20:31N 47°16' W 122°25'0 0.0
2017-Oct-12 20:01N 47°16' W 122°25'0 0.0
2017-Oct-12 19:31N 47°16' W 122°25'1 2.0
2017-Oct-12 19:01N 47°17' W 122°25'1 2.5
2017-Oct-12 18:31N 47°17' W 122°23'0 0.0
2017-Oct-12 18:00N 47°17' W 122°23'0 0.0
2017-Oct-12 17:31N 47°17' W 122°23'0 0.0
2017-Oct-12 17:01N 47°17' W 122°23'0 0.0
2017-Oct-12 16:30N 47°17' W 122°23'0 0.0
2017-Oct-12 16:00N 47°17' W 122°23'0 0.0
2017-Oct-12 15:30N 47°17' W 122°23'0 0.0
2017-Oct-12 15:00N 47°17' W 122°23'0 0.0
2017-Oct-12 14:30N 47°17' W 122°23'0 0.0
2017-Oct-12 14:00N 47°17' W 122°23'0 0.3
2017-Oct-12 13:30N 47°17' W 122°24'1 2.1
2017-Oct-12 13:00N 47°17' W 122°25'2 3.5
2017-Oct-12 12:31N 47°16' W 122°23'1 1.3
2017-Oct-12 12:01N 47°15' W 122°23'0 0.0
2017-Oct-12 11:30N 47°15' W 122°23'0 0.1
2017-Oct-12 11:00N 47°15' W 122°23'0 0.0
2017-Oct-12 10:31N 47°15' W 122°23'0 0.0
2017-Oct-12 10:01N 47°15' W 122°23'0 0.0
2017-Oct-12 09:31N 47°15' W 122°23'0 0.0
2017-Oct-12 09:00N 47°15' W 122°23'0 0.0
2017-Oct-12 08:30N 47°15' W 122°23'0 0.0
2017-Oct-12 08:00N 47°15' W 122°23'0 0.0
2017-Oct-12 07:31N 47°15' W 122°23'0 0.0
2017-Oct-12 07:00N 47°15' W 122°23'0 0.0
2017-Oct-12 06:30N 47°15' W 122°23'0 0.0
2017-Oct-12 06:00N 47°15' W 122°23'0 0.0
2017-Oct-12 05:31N 47°15' W 122°23'0 0.0
2017-Oct-12 05:01N 47°15' W 122°23'0 0.0
2017-Oct-12 04:31N 47°15' W 122°23'0 0.0
2017-Oct-12 04:01N 47°15' W 122°23'0 0.0
2017-Oct-12 03:31N 47°15' W 122°23'0 0.0
2017-Oct-12 03:01N 47°15' W 122°23'0 0.0
2017-Oct-12 02:31N 47°15' W 122°23'0 0.0
2017-Oct-12 02:00N 47°15' W 122°23'0 0.0
2017-Oct-12 01:31N 47°15' W 122°23'0 0.0
2017-Oct-12 01:00N 47°15' W 122°23'2 3.4
2017-Oct-12 00:31N 47°16' W 122°24'0 1.0
2017-Oct-12 00:01N 47°17' W 122°24'1 1.7
2017-Oct-11 23:31N 47°17' W 122°23'0 0.1
2017-Oct-11 23:01N 47°17' W 122°23'0 0.0
2017-Oct-11 22:30N 47°17' W 122°23'0 0.0
2017-Oct-11 22:00N 47°17' W 122°23'0 0.0
2017-Oct-11 21:31N 47°17' W 122°23'0 0.0
2017-Oct-11 21:00N 47°17' W 122°23'0 0.0
2017-Oct-11 20:31N 47°17' W 122°23'0 0.0
2017-Oct-11 20:00N 47°17' W 122°23'0 0.0
2017-Oct-11 19:31N 47°17' W 122°23'0 0.0
2017-Oct-11 19:00N 47°17' W 122°23'0 0.0
2017-Oct-11 18:30N 47°17' W 122°23'0 0.0
2017-Oct-11 18:00N 47°17' W 122°23'0 0.0
2017-Oct-11 17:30N 47°17' W 122°23'0 0.0
2017-Oct-11 17:01N 47°17' W 122°23'1 0.1
2017-Oct-11 00:01N 47°16' W 122°25'0 0.0
2017-Oct-10 23:30N 47°16' W 122°25'0 0.0
2017-Oct-10 23:01N 47°16' W 122°25'0 0.0
2017-Oct-10 22:31N 47°16' W 122°25'0 0.0
2017-Oct-10 22:01N 47°16' W 122°25'0 0.0
2017-Oct-10 21:30N 47°16' W 122°25'0 0.0
2017-Oct-10 20:59N 47°16' W 122°25'0 0.0
2017-Oct-10 20:30N 47°16' W 122°25'0 0.0
2017-Oct-10 20:01N 47°16' W 122°25'  

Dump ship's entire track history